OIAA

Abadan Airport

Abadan, Iran
TAF OIAA 211740Z 2118/2224 30006MPS 7000 NSC TEMPO 2206/2216 30010G15MPS 2000 DU
Issued Valid From Valid To
Jul-21 @ 17:40 UTC
(5 hours ago)
Jul-21 @ 18:00 UTC
(5 hours ago)
Jul-23 @ 00:00 UTC
(-1 days ago)
Jul-21 @ 18:00 to Jul-23 @ 00:00
TAF OIAA 211740Z 2118/2224 30006MPS 7000 NSC
Wind Visibility Clouds
300° at 12 knots 7,001 meters
  • No significant clouds
Temporary Jul-22 @ 06:00 to Jul-22 @ 16:00
TEMPO 2206/2216 30010G15MPS 2000 DU
Wind Visibility Conditions
300° at 19 knots
 Gusting to 29 knots
1,996 meters
  • Dust
TAF OIAA 211740Z 2118/2224 30006MPS 7000 NSC TEMPO 2206/2216 30010G15MPS 2000 DU
Issued Jul-21 @ 17:40 UTC
(5 hours ago)
Valid From Jul-21 @ 18:00 UTC
(5 hours ago)
Valid To Jul-23 @ 00:00 UTC
(-1 days ago)
Jul-21 @ 18:00 - Jul-23 @ 00:00
Wind Visibility
300° at 12 knots 7,001 meters
Clouds
  • No significant clouds
Temporary Jul-22 @ 06:00 - Jul-22 @ 16:00
Wind Visibility
300° at 19 knots
 Gusting to 29 knots
1,996 meters
Conditions
  • Dust